createdAt,value
2019-06-20T00:00:21.139Z,59.42
2019-06-20T00:02:47.742Z,59.27
2019-06-20T00:05:14.318Z,59.10
2019-06-20T00:07:40.931Z,59.22
2019-06-20T00:10:07.556Z,60.34
2019-06-20T00:12:34.149Z,59.78
2019-06-20T00:15:00.725Z,59.70
2019-06-20T00:17:27.358Z,59.67
2019-06-20T00:19:53.972Z,59.61
2019-06-20T00:22:20.542Z,59.56
2019-06-20T00:24:47.133Z,60.40
2019-06-20T00:27:13.737Z,60.05
2019-06-20T00:29:40.390Z,60.87
2019-06-20T00:32:07.009Z,60.13
2019-06-20T00:34:33.586Z,60.54
2019-06-20T00:37:00.171Z,60.98
2019-06-20T00:39:26.934Z,60.50
2019-06-20T00:41:54.385Z,59.93
2019-06-20T00:44:21.001Z,60.54
2019-06-20T00:46:47.597Z,59.66
2019-06-20T00:49:14.178Z,59.82
2019-06-20T00:51:40.769Z,60.00
2019-06-20T00:54:07.363Z,59.79
2019-06-20T00:56:34.008Z,59.59
2019-06-20T00:59:00.634Z,59.55
2019-06-20T01:01:27.211Z,59.46
2019-06-20T01:03:53.827Z,59.42
2019-06-20T01:06:20.436Z,59.50
2019-06-20T01:08:47.042Z,59.42
2019-06-20T01:11:13.634Z,60.76
2019-06-20T01:13:40.217Z,59.80
2019-06-20T01:16:06.832Z,59.50
2019-06-20T01:18:33.457Z,59.80
2019-06-20T01:21:00.012Z,60.32
2019-06-20T01:23:26.653Z,60.18
2019-06-20T01:25:53.223Z,59.68
2019-06-20T01:28:19.799Z,59.84
2019-06-20T01:30:46.407Z,60.05
2019-06-20T01:33:12.978Z,60.01
2019-06-20T01:35:39.928Z,59.95
2019-06-20T01:38:06.487Z,59.85
2019-06-20T01:40:33.098Z,59.86
2019-06-20T01:42:59.684Z,59.89
2019-06-20T01:45:26.270Z,59.90
2019-06-20T01:47:52.880Z,59.89
2019-06-20T01:50:19.550Z,59.87
2019-06-20T01:52:46.134Z,60.15
2019-06-20T01:55:12.739Z,59.72
2019-06-20T01:57:39.358Z,59.50
2019-06-20T02:00:06.000Z,59.55
2019-06-20T02:02:32.647Z,59.57
2019-06-20T02:04:59.277Z,59.63
2019-06-20T02:07:28.260Z,59.70
2019-06-20T02:09:54.215Z,59.60
2019-06-20T02:12:20.816Z,59.67
2019-06-20T02:14:47.425Z,59.66
2019-06-20T02:17:13.993Z,59.58
2019-06-20T02:19:40.643Z,59.64
2019-06-20T02:22:07.218Z,60.04
2019-06-20T02:24:33.796Z,60.47
2019-06-20T02:27:00.398Z,60.30
2019-06-20T02:29:26.979Z,60.33
2019-06-20T02:31:53.560Z,60.61
2019-06-20T02:34:20.253Z,61.22
2019-06-20T02:36:46.822Z,60.69
2019-06-20T02:39:13.408Z,60.76
2019-06-20T02:41:40.062Z,60.46
2019-06-20T02:44:24.538Z,60.61
2019-06-20T02:46:34.980Z,60.78
2019-06-20T02:49:01.654Z,60.72
2019-06-20T02:51:28.242Z,60.65
2019-06-20T02:53:54.867Z,60.75
2019-06-20T02:56:21.485Z,60.77
2019-06-20T02:58:48.167Z,60.83
2019-06-20T03:01:14.767Z,60.88
2019-06-20T03:03:41.348Z,60.83
2019-06-20T03:06:07.982Z,60.89
2019-06-20T03:08:34.566Z,60.73
2019-06-20T03:11:01.133Z,61.00
2019-06-20T03:13:27.746Z,60.91
2019-06-20T03:15:54.324Z,61.47
2019-06-20T03:18:20.901Z,61.31
2019-06-20T03:20:47.488Z,60.89
2019-06-20T03:23:14.060Z,60.87
2019-06-20T03:25:40.685Z,60.74
2019-06-20T03:28:07.268Z,61.50
2019-06-20T03:30:33.836Z,60.85
2019-06-20T03:33:00.443Z,61.61
2019-06-20T03:35:27.041Z,61.32
2019-06-20T03:37:53.608Z,61.59
2019-06-20T03:40:20.221Z,61.26
2019-06-20T03:42:46.900Z,61.83
2019-06-20T03:45:13.544Z,61.66
2019-06-20T03:47:40.180Z,61.76
2019-06-20T03:50:06.852Z,61.72
2019-06-20T03:52:33.475Z,61.08
2019-06-20T03:55:00.058Z,61.28
2019-06-20T03:57:26.688Z,61.46
2019-06-20T03:59:53.273Z,62.05
2019-06-20T04:02:19.839Z,61.47
2019-06-20T04:04:46.466Z,61.25
2019-06-20T04:07:13.050Z,61.18
2019-06-20T04:09:39.895Z,61.20
2019-06-20T04:12:06.497Z,61.24
2019-06-20T04:14:33.076Z,60.72
2019-06-20T04:16:59.679Z,61.11
2019-06-20T04:19:26.249Z,60.84
2019-06-20T04:21:52.874Z,60.57
2019-06-20T04:24:19.442Z,60.36
2019-06-20T04:26:46.027Z,60.02
2019-06-20T04:29:12.677Z,60.25
2019-06-20T04:31:39.285Z,60.18
2019-06-20T04:34:05.932Z,60.69
2019-06-20T04:36:32.530Z,60.69
2019-06-20T04:38:59.133Z,60.87
2019-06-20T04:41:25.919Z,61.20
2019-06-20T04:43:52.501Z,61.49
2019-06-20T04:46:19.131Z,61.41
2019-06-20T04:48:45.748Z,60.80
2019-06-20T04:51:12.311Z,60.73
2019-06-20T04:53:39.083Z,61.10
2019-06-20T04:56:05.965Z,60.76
2019-06-20T04:58:32.637Z,60.95
2019-06-20T05:00:59.230Z,60.50
2019-06-20T05:03:25.823Z,60.22
2019-06-20T05:05:52.453Z,60.03
2019-06-20T05:08:19.115Z,60.18
2019-06-20T05:10:45.691Z,60.37
2019-06-20T05:13:12.304Z,60.05
2019-06-20T05:15:51.993Z,60.10
2019-06-20T05:18:07.191Z,59.75
2019-06-20T05:20:33.803Z,60.16
2019-06-20T05:23:00.425Z,59.98
2019-06-20T05:25:27.000Z,59.52
2019-06-20T05:27:53.659Z,59.39
2019-06-20T05:30:20.412Z,59.14
2019-06-20T05:32:46.994Z,58.98
2019-06-20T05:35:13.596Z,58.89
2019-06-20T05:37:40.209Z,59.09
2019-06-20T05:40:06.780Z,58.80
2019-06-20T05:42:33.381Z,58.36
2019-06-20T05:44:59.958Z,58.07
2019-06-20T05:47:26.551Z,57.75
2019-06-20T05:49:53.123Z,57.42
2019-06-20T05:52:19.749Z,56.95
2019-06-20T05:54:46.548Z,56.89
2019-06-20T05:57:13.200Z,56.54
2019-06-20T05:59:39.982Z,56.43
2019-06-20T06:02:06.612Z,56.34
2019-06-20T06:04:33.334Z,56.19
2019-06-20T06:07:00.008Z,56.03
2019-06-20T06:09:27.204Z,55.89
2019-06-20T06:11:53.939Z,55.89
2019-06-20T06:14:20.596Z,55.73
2019-06-20T06:16:47.193Z,55.71
2019-06-20T06:19:13.913Z,55.56
2019-06-20T06:21:40.480Z,55.23
2019-06-20T06:24:07.114Z,54.92
2019-06-20T06:26:33.730Z,54.52
2019-06-20T06:29:00.305Z,54.59
2019-06-20T06:31:26.903Z,54.01
2019-06-20T06:33:53.484Z,53.72
2019-06-20T06:36:20.205Z,53.73
2019-06-20T06:38:46.791Z,53.76
2019-06-20T06:41:13.357Z,53.18
2019-06-20T06:43:41.856Z,52.16
2019-06-20T06:46:08.352Z,52.00
2019-06-20T06:48:34.979Z,52.29
2019-06-20T06:51:01.924Z,49.45
2019-06-20T06:53:28.760Z,48.02
2019-06-20T06:55:55.354Z,49.28
2019-06-20T06:58:22.090Z,49.75
2019-06-20T07:00:48.674Z,48.76
2019-06-20T07:03:15.267Z,48.69
2019-06-20T07:05:41.883Z,47.82
2019-06-20T07:08:08.525Z,46.88
2019-06-20T07:10:35.147Z,46.56
2019-06-20T07:13:01.785Z,46.01
2019-06-20T07:15:28.438Z,45.21
2019-06-20T07:17:55.040Z,45.69
2019-06-20T07:20:21.699Z,47.05
2019-06-20T07:22:48.298Z,47.49
2019-06-20T07:25:14.884Z,45.62
2019-06-20T07:27:41.517Z,45.77
2019-06-20T07:30:08.113Z,44.65
2019-06-20T07:32:34.758Z,42.77
2019-06-20T07:35:01.365Z,44.44
2019-06-20T07:37:27.947Z,42.51
2019-06-20T07:39:54.602Z,44.36
2019-06-20T07:42:21.287Z,43.53
2019-06-20T07:44:47.863Z,43.68
2019-06-20T07:47:17.918Z,43.40
2019-06-20T07:49:42.813Z,43.10
2019-06-20T07:52:09.385Z,42.06
2019-06-20T07:54:36.171Z,43.19
2019-06-20T07:57:02.856Z,43.43
2019-06-20T07:59:29.498Z,42.34
2019-06-20T08:01:56.114Z,42.67
2019-06-20T08:04:22.712Z,41.33
2019-06-20T08:06:49.302Z,41.64
2019-06-20T08:09:15.895Z,41.82
2019-06-20T08:11:42.473Z,42.03
2019-06-20T08:14:09.093Z,41.05
2019-06-20T08:16:35.742Z,41.88
2019-06-20T08:19:02.378Z,40.78
2019-06-20T08:21:29.086Z,40.22
2019-06-20T08:23:55.667Z,41.68
2019-06-20T08:26:22.256Z,42.46
2019-06-20T08:28:48.886Z,42.96
2019-06-20T08:31:15.466Z,43.22
2019-06-20T08:33:42.195Z,43.10
2019-06-20T08:36:08.821Z,43.26
2019-06-20T08:38:35.433Z,42.96
2019-06-20T08:41:02.272Z,41.84
2019-06-20T08:43:28.965Z,41.73
2019-06-20T08:45:56.730Z,41.16
2019-06-20T08:48:23.894Z,39.36
2019-06-20T08:50:50.471Z,39.80
2019-06-20T08:53:17.160Z,40.02
2019-06-20T08:55:43.791Z,40.81
2019-06-20T08:58:10.382Z,41.29
2019-06-20T09:00:37.239Z,41.70
2019-06-20T09:03:03.992Z,42.19
2019-06-20T09:05:31.158Z,41.47
2019-06-20T09:07:59.036Z,40.26
2019-06-20T09:10:26.492Z,39.68
2019-06-20T09:12:54.077Z,40.80
2019-06-20T09:15:21.438Z,40.72
2019-06-20T09:17:48.073Z,40.07
2019-06-20T09:20:14.643Z,39.75
2019-06-20T09:22:41.226Z,40.25
2019-06-20T09:25:07.811Z,40.06
2019-06-20T09:27:34.425Z,39.88
2019-06-20T09:30:01.058Z,40.27
2019-06-20T09:32:27.630Z,39.36
2019-06-20T09:34:54.532Z,40.18
2019-06-20T09:37:21.198Z,40.04
2019-06-20T09:39:47.792Z,40.24
2019-06-20T09:42:14.424Z,41.06
2019-06-20T09:44:41.098Z,41.18
2019-06-20T09:47:07.702Z,41.12
2019-06-20T09:49:34.300Z,41.75
2019-06-20T09:52:00.949Z,42.27
2019-06-20T09:54:27.549Z,43.29
2019-06-20T09:56:55.402Z,43.68
2019-06-20T09:59:27.675Z,43.43
2019-06-20T10:01:51.524Z,43.25
2019-06-20T10:04:21.510Z,43.68
2019-06-20T10:06:48.601Z,43.44
2019-06-20T10:09:15.347Z,43.30
2019-06-20T10:11:41.978Z,43.41
2019-06-20T10:14:08.622Z,43.35
2019-06-20T10:16:45.221Z,42.49
2019-06-20T10:19:03.548Z,40.91
2019-06-20T10:21:30.154Z,41.41
2019-06-20T10:23:56.800Z,40.26
2019-06-20T10:26:23.466Z,41.16
2019-06-20T10:28:51.425Z,40.55
2019-06-20T10:31:18.101Z,40.99
2019-06-20T10:33:45.744Z,40.59
2019-06-20T10:36:13.012Z,40.54
2019-06-20T10:38:39.608Z,40.49
2019-06-20T10:41:06.255Z,40.39
2019-06-20T10:43:32.888Z,39.69
2019-06-20T10:45:59.488Z,40.50
2019-06-20T10:48:26.149Z,40.11
2019-06-20T10:50:52.768Z,40.29
2019-06-20T10:53:19.361Z,40.43
2019-06-20T10:55:46.985Z,40.63
2019-06-20T10:58:13.719Z,40.89
2019-06-20T11:00:41.694Z,40.47
2019-06-20T11:03:08.615Z,40.63
2019-06-20T11:05:35.211Z,39.64
2019-06-20T11:08:01.788Z,40.12
2019-06-20T11:10:28.378Z,39.88
2019-06-20T11:12:56.373Z,39.82
2019-06-20T11:15:23.153Z,40.11
2019-06-20T11:17:49.781Z,37.68
2019-06-20T11:20:16.418Z,38.25
2019-06-20T11:22:43.274Z,38.68
2019-06-20T11:25:10.013Z,37.32
2019-06-20T11:27:37.678Z,37.41
2019-06-20T11:30:04.954Z,37.88
2019-06-20T11:32:31.545Z,37.53
2019-06-20T11:34:58.143Z,37.45
2019-06-20T11:37:24.753Z,38.34
2019-06-20T11:39:51.439Z,38.66
2019-06-20T11:42:18.005Z,38.70
2019-06-20T11:44:44.676Z,38.59
2019-06-20T11:47:11.292Z,38.68
2019-06-20T11:49:38.185Z,38.81
2019-06-20T11:52:04.859Z,39.00
2019-06-20T11:54:32.736Z,39.32
2019-06-20T11:56:59.398Z,39.24
2019-06-20T11:59:25.998Z,39.17
2019-06-20T12:01:52.713Z,38.87
2019-06-20T12:04:19.354Z,38.59
2019-06-20T12:06:47.131Z,39.02
2019-06-20T12:09:13.885Z,40.01
2019-06-20T12:11:40.730Z,41.49
2019-06-20T12:14:07.423Z,45.02
2019-06-20T12:16:34.123Z,46.53
2019-06-20T12:19:00.714Z,48.08
2019-06-20T12:21:27.297Z,48.81
2019-06-20T12:23:53.907Z,51.80
2019-06-20T12:26:21.454Z,51.73
2019-06-20T12:28:48.725Z,50.12
2019-06-20T12:31:19.620Z,51.49
2019-06-20T12:33:45.094Z,50.53
2019-06-20T12:36:11.854Z,49.44
2019-06-20T12:38:39.884Z,50.23
2019-06-20T12:41:06.803Z,50.64
2019-06-20T12:43:33.435Z,50.09
2019-06-20T12:46:00.050Z,50.04
2019-06-20T12:48:26.679Z,50.17
2019-06-20T12:50:53.258Z,50.13
2019-06-20T12:53:19.838Z,50.81
2019-06-20T12:55:47.524Z,50.39
2019-06-20T12:58:14.368Z,48.82
2019-06-20T13:00:41.718Z,48.60
2019-06-20T13:03:09.332Z,47.61
2019-06-20T13:05:35.961Z,48.17
2019-06-20T13:08:02.662Z,48.49
2019-06-20T13:10:29.329Z,48.09
2019-06-20T13:12:55.929Z,47.48
2019-06-20T13:15:22.546Z,48.03
2019-06-20T13:17:49.320Z,46.39
2019-06-20T13:20:16.020Z,46.81
2019-06-20T13:22:42.925Z,46.72
2019-06-20T13:25:09.964Z,46.50
2019-06-20T13:27:39.029Z,44.87
2019-06-20T13:30:04.886Z,45.20
2019-06-20T13:32:31.539Z,45.07
2019-06-20T13:34:58.152Z,44.72
2019-06-20T13:37:24.773Z,44.84
2019-06-20T13:39:51.337Z,44.63
2019-06-20T13:42:17.934Z,41.63
2019-06-20T13:44:44.511Z,42.96
2019-06-20T13:47:13.139Z,43.46
2019-06-20T13:49:41.196Z,43.62
2019-06-20T13:52:08.091Z,43.12
2019-06-20T13:54:34.853Z,42.30
2019-06-20T13:57:01.428Z,40.18
2019-06-20T13:59:28.031Z,41.92
2019-06-20T14:02:06.232Z,41.50
2019-06-20T14:04:22.977Z,41.91
2019-06-20T14:06:49.763Z,40.62
2019-06-20T14:09:17.174Z,40.80
2019-06-20T14:11:45.336Z,40.39
2019-06-20T14:14:12.051Z,39.81
2019-06-20T14:16:38.640Z,39.31
2019-06-20T14:19:05.301Z,37.36
2019-06-20T14:21:31.901Z,38.32
2019-06-20T14:23:58.481Z,38.72
2019-06-20T14:26:25.244Z,38.93
2019-06-20T14:28:51.845Z,39.13
2019-06-20T14:31:18.434Z,39.41
2019-06-20T14:33:46.128Z,39.73
2019-06-20T14:36:12.882Z,39.84
2019-06-20T14:38:39.484Z,40.63
2019-06-20T14:41:06.134Z,40.98
2019-06-20T14:43:32.756Z,41.21
2019-06-20T14:45:59.365Z,41.55
2019-06-20T14:48:25.950Z,41.83
2019-06-20T14:50:53.410Z,42.04
2019-06-20T14:53:20.191Z,42.17
2019-06-20T14:55:47.684Z,42.42
2019-06-20T14:58:14.487Z,42.60
2019-06-20T15:00:41.071Z,42.81
2019-06-20T15:03:07.670Z,43.19
2019-06-20T15:05:34.989Z,43.44
2019-06-20T15:08:01.760Z,43.69
2019-06-20T15:10:28.396Z,44.42
2019-06-20T15:12:55.846Z,44.77
2019-06-20T15:15:22.842Z,44.64
2019-06-20T15:17:51.530Z,45.88
2019-06-20T15:20:17.734Z,45.42
2019-06-20T15:22:46.738Z,45.71
2019-06-20T15:25:12.771Z,46.21
2019-06-20T15:27:39.380Z,46.11
2019-06-20T15:30:06.072Z,46.40
2019-06-20T15:32:32.661Z,46.75
2019-06-20T15:35:01.770Z,46.74
2019-06-20T15:37:27.625Z,47.05
2019-06-20T15:39:55.430Z,47.51
2019-06-20T15:42:22.554Z,47.41
2019-06-20T15:44:50.171Z,47.60
2019-06-20T15:47:17.516Z,47.63
2019-06-20T15:49:44.128Z,47.49
2019-06-20T15:52:10.703Z,47.66
2019-06-20T15:54:37.345Z,48.17
2019-06-20T15:57:03.938Z,48.15
2019-06-20T15:59:30.587Z,48.05
2019-06-20T16:01:57.193Z,48.20
2019-06-20T16:04:23.805Z,48.86
2019-06-20T16:06:50.569Z,48.67
2019-06-20T16:09:17.277Z,49.61
2019-06-20T16:11:43.886Z,48.79
2019-06-20T16:14:10.490Z,49.06
2019-06-20T16:16:37.046Z,48.94
2019-06-20T16:19:03.647Z,49.76
2019-06-20T16:21:30.540Z,49.86
2019-06-20T16:23:57.141Z,50.14
2019-06-20T16:26:23.730Z,51.13
2019-06-20T16:28:50.465Z,51.70
2019-06-20T16:31:26.461Z,51.56
2019-06-20T16:33:45.341Z,52.67
2019-06-20T16:36:13.113Z,53.22
2019-06-20T16:38:40.053Z,53.75
2019-06-20T16:41:06.813Z,53.73
2019-06-20T16:43:33.412Z,55.75
2019-06-20T16:45:59.969Z,55.13
2019-06-20T16:48:26.728Z,56.38
2019-06-20T16:50:53.311Z,55.91
2019-06-20T16:53:19.891Z,55.43
2019-06-20T16:55:46.584Z,56.07
2019-06-20T16:58:13.166Z,56.42
2019-06-20T17:00:39.817Z,56.42
2019-06-20T17:03:06.407Z,57.20
2019-06-20T17:05:33.057Z,57.32
2019-06-20T17:07:59.681Z,57.39
2019-06-20T17:10:26.248Z,57.63
2019-06-20T17:12:52.882Z,57.89
2019-06-20T17:15:19.772Z,57.48
2019-06-20T17:17:46.366Z,58.78
2019-06-20T17:20:12.991Z,57.29
2019-06-20T17:22:39.579Z,58.72
2019-06-20T17:25:06.184Z,58.06
2019-06-20T17:27:32.765Z,57.44
2019-06-20T17:29:59.468Z,57.40
2019-06-20T17:32:26.119Z,57.74
2019-06-20T17:34:52.693Z,58.05
2019-06-20T17:37:19.253Z,58.22
2019-06-20T17:39:46.215Z,57.83
2019-06-20T17:42:13.056Z,59.48
2019-06-20T17:44:39.816Z,59.81
2019-06-20T17:47:06.377Z,60.89
2019-06-20T17:49:32.954Z,60.89
2019-06-20T17:51:59.551Z,60.02
2019-06-20T17:54:26.205Z,61.88
2019-06-20T17:56:52.807Z,62.84
2019-06-20T17:59:22.551Z,62.36
2019-06-20T18:01:47.781Z,63.04
2019-06-20T18:04:14.468Z,62.82
2019-06-20T18:06:41.047Z,63.07
2019-06-20T18:09:07.653Z,62.16
2019-06-20T18:11:34.277Z,61.68
2019-06-20T18:14:00.867Z,62.43
2019-06-20T18:16:27.500Z,61.84
2019-06-20T18:18:54.218Z,61.43
2019-06-20T18:21:20.810Z,61.96
2019-06-20T18:23:47.392Z,62.16
2019-06-20T18:26:14.214Z,63.70
2019-06-20T18:28:40.795Z,62.81
2019-06-20T18:31:07.384Z,63.00
2019-06-20T18:33:35.827Z,62.37
2019-06-20T18:36:02.451Z,63.16
2019-06-20T18:38:29.122Z,64.55
2019-06-20T18:40:55.718Z,63.79
2019-06-20T18:43:22.330Z,62.94
2019-06-20T18:45:48.976Z,63.01
2019-06-20T18:48:15.557Z,63.27
2019-06-20T18:50:42.173Z,63.38
2019-06-20T18:53:08.776Z,63.07
2019-06-20T18:55:35.341Z,63.03
2019-06-20T18:58:01.923Z,64.83
2019-06-20T19:00:34.744Z,63.52
2019-06-20T19:02:56.835Z,63.36
2019-06-20T19:05:23.470Z,63.33
2019-06-20T19:07:50.051Z,63.12
2019-06-20T19:10:16.649Z,64.39
2019-06-20T19:12:43.222Z,63.83
2019-06-20T19:15:09.827Z,63.34
2019-06-20T19:17:36.422Z,63.98
2019-06-20T19:20:03.112Z,64.78
2019-06-20T19:22:30.125Z,64.28
2019-06-20T19:24:56.767Z,64.19
2019-06-20T19:27:23.360Z,63.89
2019-06-20T19:29:49.963Z,63.73
2019-06-20T19:32:16.569Z,64.66
2019-06-20T19:34:43.189Z,64.04
2019-06-20T19:37:09.849Z,64.91
2019-06-20T19:39:36.504Z,64.66
2019-06-20T19:42:03.167Z,64.25
2019-06-20T19:44:29.802Z,65.47
2019-06-20T19:46:56.402Z,65.98
2019-06-20T19:49:23.013Z,66.22
2019-06-20T19:51:49.603Z,65.80
2019-06-20T19:54:16.255Z,65.80
2019-06-20T19:56:42.837Z,65.16
2019-06-20T19:59:09.463Z,65.84
2019-06-20T20:01:36.095Z,65.68
2019-06-20T20:04:02.700Z,65.55
2019-06-20T20:06:29.315Z,65.02
2019-06-20T20:08:55.989Z,66.07
2019-06-20T20:11:22.624Z,64.76
2019-06-20T20:13:49.276Z,64.51
2019-06-20T20:16:15.888Z,64.53
2019-06-20T20:18:42.485Z,65.69
2019-06-20T20:21:09.081Z,66.26
2019-06-20T20:23:35.727Z,65.65
2019-06-20T20:26:02.311Z,65.08
2019-06-20T20:28:28.912Z,65.26
2019-06-20T20:30:55.562Z,64.88
2019-06-20T20:33:22.307Z,65.06
2019-06-20T20:35:49.076Z,65.19
2019-06-20T20:38:15.651Z,65.49
2019-06-20T20:40:42.325Z,64.73
2019-06-20T20:43:08.927Z,65.66
2019-06-20T20:45:35.507Z,64.72
2019-06-20T20:48:02.245Z,64.36
2019-06-20T20:50:28.917Z,64.48
2019-06-20T20:52:55.613Z,65.22
2019-06-20T20:55:22.236Z,65.14
2019-06-20T20:57:48.805Z,65.12
2019-06-20T21:00:15.473Z,65.74
2019-06-20T21:02:42.051Z,65.26
2019-06-20T21:05:08.639Z,64.55
2019-06-20T21:07:35.260Z,65.44
2019-06-20T21:10:01.871Z,65.74
2019-06-20T21:12:28.453Z,65.65
2019-06-20T21:14:55.022Z,65.75
2019-06-20T21:17:21.806Z,65.17
2019-06-20T21:19:48.399Z,65.08
2019-06-20T21:22:14.977Z,64.95
2019-06-20T21:24:41.660Z,65.37
2019-06-20T21:27:08.353Z,65.05
2019-06-20T21:29:34.920Z,65.25
2019-06-20T21:32:01.835Z,65.31
2019-06-20T21:34:28.451Z,65.48
2019-06-20T21:36:55.135Z,65.50
2019-06-20T21:39:21.742Z,66.01
2019-06-20T21:41:48.522Z,66.46
2019-06-20T21:44:15.244Z,65.72
2019-06-20T21:46:41.806Z,65.70
2019-06-20T21:49:08.387Z,65.80
2019-06-20T21:51:35.000Z,65.49
2019-06-20T21:54:01.599Z,65.52
2019-06-20T21:56:28.236Z,66.58
2019-06-20T21:58:54.817Z,66.06
2019-06-20T22:01:21.402Z,65.50
2019-06-20T22:03:48.002Z,66.19
2019-06-20T22:06:23.285Z,65.73
2019-06-20T22:08:42.921Z,66.94
2019-06-20T22:11:09.524Z,65.58
2019-06-20T22:13:36.146Z,65.43
2019-06-20T22:16:02.733Z,65.21
2019-06-20T22:18:29.307Z,65.33
2019-06-20T22:20:55.887Z,65.49
2019-06-20T22:23:22.480Z,65.39
2019-06-20T22:25:49.090Z,65.52
2019-06-20T22:28:15.700Z,65.32
2019-06-20T22:30:42.324Z,65.11
2019-06-20T22:33:08.935Z,65.63
2019-06-20T22:35:35.551Z,65.60
2019-06-20T22:38:02.118Z,65.09
2019-06-20T22:40:28.769Z,66.13
2019-06-20T22:42:55.400Z,66.42
2019-06-20T22:45:21.973Z,65.61
2019-06-20T22:47:48.586Z,66.54
2019-06-20T22:50:15.156Z,66.75
2019-06-20T22:52:41.819Z,67.05
2019-06-20T22:55:08.396Z,67.29
2019-06-20T22:57:34.987Z,66.73
2019-06-20T23:00:01.624Z,66.28
2019-06-20T23:02:28.352Z,67.29
2019-06-20T23:04:54.936Z,67.22
2019-06-20T23:07:21.546Z,68.06
2019-06-20T23:09:48.173Z,67.85
2019-06-20T23:12:14.805Z,68.30
2019-06-20T23:14:41.957Z,67.69
2019-06-20T23:17:08.606Z,68.24
2019-06-20T23:19:35.203Z,68.71
2019-06-20T23:22:01.804Z,67.61
2019-06-20T23:24:28.402Z,67.81
2019-06-20T23:26:54.995Z,67.64
2019-06-20T23:29:21.607Z,68.21
2019-06-20T23:31:48.187Z,67.77
2019-06-20T23:34:14.776Z,67.74
2019-06-20T23:36:41.376Z,68.61
2019-06-20T23:39:07.989Z,68.33
2019-06-20T23:41:34.568Z,68.62
2019-06-20T23:44:01.207Z,68.14
2019-06-20T23:46:27.761Z,68.53
2019-06-20T23:48:54.353Z,67.90
2019-06-20T23:51:25.317Z,67.65
2019-06-20T23:53:49.343Z,68.52
2019-06-20T23:56:15.955Z,67.68
2019-06-20T23:58:42.589Z,67.40
